sensor_id;sensor_type;location;lat;lon;timestamp;pressure;altitude;pressure_sealevel;temperature;humidity
71774;BME280;59607;52.130;5.430;2023-05-18T00:01:43;102998.94;;;7.17;78.32
71774;BME280;59607;52.130;5.430;2023-05-18T00:04:10;102993.88;;;7.14;77.93
71774;BME280;59607;52.130;5.430;2023-05-18T00:06:42;102997.44;;;7.13;78.37
71774;BME280;59607;52.130;5.430;2023-05-18T00:09:09;102995.94;;;7.09;78.61
71774;BME280;59607;52.130;5.430;2023-05-18T00:11:40;102990.84;;;7.06;78.91
71774;BME280;59607;52.130;5.430;2023-05-18T00:14:09;102997.00;;;7.04;78.59
71774;BME280;59607;52.130;5.430;2023-05-18T00:16:37;102995.19;;;7.07;79.04
71774;BME280;59607;52.130;5.430;2023-05-18T00:19:09;102992.81;;;7.02;78.69
71774;BME280;59607;52.130;5.430;2023-05-18T00:21:35;102991.28;;;6.98;79.01
71774;BME280;59607;52.130;5.430;2023-05-18T00:24:06;102997.38;;;6.98;79.05
71774;BME280;59607;52.130;5.430;2023-05-18T00:26:32;102996.59;;;6.96;79.06
71774;BME280;59607;52.130;5.430;2023-05-18T00:28:59;103002.91;;;6.92;78.89
71774;BME280;59607;52.130;5.430;2023-05-18T00:31:25;102993.41;;;6.91;79.43
71774;BME280;59607;52.130;5.430;2023-05-18T00:33:57;103002.06;;;6.91;79.07
71774;BME280;59607;52.130;5.430;2023-05-18T00:36:24;103001.22;;;6.91;79.42
71774;BME280;59607;52.130;5.430;2023-05-18T00:38:59;103002.31;;;6.87;79.06
71774;BME280;59607;52.130;5.430;2023-05-18T00:41:26;103008.47;;;6.86;79.00
71774;BME280;59607;52.130;5.430;2023-05-18T00:43:57;103005.19;;;6.82;78.90
71774;BME280;59607;52.130;5.430;2023-05-18T00:46:24;103006.13;;;6.81;79.41
71774;BME280;59607;52.130;5.430;2023-05-18T00:48:52;102994.75;;;6.82;78.96
71774;BME280;59607;52.130;5.430;2023-05-18T00:51:23;103008.81;;;6.79;78.81
71774;BME280;59607;52.130;5.430;2023-05-18T00:53:54;103002.16;;;6.74;79.25
71774;BME280;59607;52.130;5.430;2023-05-18T00:56:31;103004.75;;;6.74;79.26
71774;BME280;59607;52.130;5.430;2023-05-18T00:59:07;102999.72;;;6.71;79.04
71774;BME280;59607;52.130;5.430;2023-05-18T01:01:37;103004.16;;;6.69;79.92
71774;BME280;59607;52.130;5.430;2023-05-18T01:04:09;102999.88;;;6.68;80.21
71774;BME280;59607;52.130;5.430;2023-05-18T01:06:40;103006.84;;;6.67;80.25
71774;BME280;59607;52.130;5.430;2023-05-18T01:09:17;103004.25;;;6.67;80.19
71774;BME280;59607;52.130;5.430;2023-05-18T01:14:36;103003.72;;;6.60;80.95
71774;BME280;59607;52.130;5.430;2023-05-18T01:20:14;103006.34;;;6.60;80.63
71774;BME280;59607;52.130;5.430;2023-05-18T01:23:11;103007.34;;;6.58;80.80
71774;BME280;59607;52.130;5.430;2023-05-18T01:28:37;103003.97;;;6.56;81.16
71774;BME280;59607;52.130;5.430;2023-05-18T01:31:13;103007.34;;;6.58;80.91
71774;BME280;59607;52.130;5.430;2023-05-18T01:33:45;103007.34;;;6.58;81.31
71774;BME280;59607;52.130;5.430;2023-05-18T01:36:16;103002.22;;;6.56;80.78
71774;BME280;59607;52.130;5.430;2023-05-18T01:38:43;103005.16;;;6.50;81.31
71774;BME280;59607;52.130;5.430;2023-05-18T01:41:20;103007.94;;;6.47;81.67
71774;BME280;59607;52.130;5.430;2023-05-18T01:44:09;103006.00;;;6.50;81.41
71774;BME280;59607;52.130;5.430;2023-05-18T01:47:00;103014.81;;;6.48;81.64
71774;BME280;59607;52.130;5.430;2023-05-18T01:49:55;103014.97;;;6.45;81.57
71774;BME280;59607;52.130;5.430;2023-05-18T01:53:05;103015.91;;;6.44;81.91
71774;BME280;59607;52.130;5.430;2023-05-18T01:55:33;103005.75;;;6.39;81.98
71774;BME280;59607;52.130;5.430;2023-05-18T01:58:06;103015.47;;;6.35;82.16
71774;BME280;59607;52.130;5.430;2023-05-18T02:00:33;103004.38;;;6.32;82.90
71774;BME280;59607;52.130;5.430;2023-05-18T02:03:07;103007.66;;;6.35;82.74
71774;BME280;59607;52.130;5.430;2023-05-18T02:05:34;103010.25;;;6.35;82.69
71774;BME280;59607;52.130;5.430;2023-05-18T02:08:10;103010.03;;;6.40;82.58
71774;BME280;59607;52.130;5.430;2023-05-18T02:10:36;103002.19;;;6.40;82.24
71774;BME280;59607;52.130;5.430;2023-05-18T02:13:03;103003.28;;;6.36;81.98
71774;BME280;59607;52.130;5.430;2023-05-18T02:15:46;103002.69;;;6.31;82.66
71774;BME280;59607;52.130;5.430;2023-05-18T02:18:19;103010.44;;;6.32;83.00
71774;BME280;59607;52.130;5.430;2023-05-18T02:20:47;103007.91;;;6.31;83.42
71774;BME280;59607;52.130;5.430;2023-05-18T02:23:18;103004.44;;;6.30;83.15
71774;BME280;59607;52.130;5.430;2023-05-18T02:25:45;103003.66;;;6.28;83.51
71774;BME280;59607;52.130;5.430;2023-05-18T02:28:12;103016.53;;;6.31;83.50
71774;BME280;59607;52.130;5.430;2023-05-18T02:31:14;103016.03;;;6.24;84.08
71774;BME280;59607;52.130;5.430;2023-05-18T02:33:44;103009.81;;;6.27;84.50
71774;BME280;59607;52.130;5.430;2023-05-18T02:36:12;103008.06;;;6.27;84.41
71774;BME280;59607;52.130;5.430;2023-05-18T02:38:42;103004.69;;;6.25;84.93
71774;BME280;59607;52.130;5.430;2023-05-18T02:41:10;103004.16;;;6.19;84.80
71774;BME280;59607;52.130;5.430;2023-05-18T02:43:37;103006.75;;;6.19;84.92
71774;BME280;59607;52.130;5.430;2023-05-18T02:46:14;103003.47;;;6.15;85.01
71774;BME280;59607;52.130;5.430;2023-05-18T02:48:50;103001.63;;;6.17;85.05
71774;BME280;59607;52.130;5.430;2023-05-18T02:51:18;103004.47;;;6.12;84.81
71774;BME280;59607;52.130;5.430;2023-05-18T02:53:46;103000.28;;;6.10;85.07
71774;BME280;59607;52.130;5.430;2023-05-18T02:56:33;103004.56;;;6.11;84.56
71774;BME280;59607;52.130;5.430;2023-05-18T02:58:59;103002.97;;;6.08;84.69
71774;BME280;59607;52.130;5.430;2023-05-18T03:01:26;103008.91;;;6.10;84.98
71774;BME280;59607;52.130;5.430;2023-05-18T03:03:53;103002.19;;;6.06;84.85
71774;BME280;59607;52.130;5.430;2023-05-18T03:06:27;103002.41;;;6.01;84.63
71774;BME280;59607;52.130;5.430;2023-05-18T03:08:56;103000.69;;;6.00;85.01
71774;BME280;59607;52.130;5.430;2023-05-18T03:11:27;103000.78;;;5.99;85.09
71774;BME280;59607;52.130;5.430;2023-05-18T03:13:54;103001.47;;;6.02;84.49
71774;BME280;59607;52.130;5.430;2023-05-18T03:16:24;103005.81;;;6.02;84.46
71774;BME280;59607;52.130;5.430;2023-05-18T03:18:55;103011.88;;;6.02;84.00
71774;BME280;59607;52.130;5.430;2023-05-18T03:21:27;103009.28;;;6.02;83.74
71774;BME280;59607;52.130;5.430;2023-05-18T03:23:59;103006.16;;;5.96;83.52
71774;BME280;59607;52.130;5.430;2023-05-18T03:26:26;103015.81;;;5.93;83.47
71774;BME280;59607;52.130;5.430;2023-05-18T03:28:59;103006.47;;;5.89;84.02
71774;BME280;59607;52.130;5.430;2023-05-18T03:31:26;103010.72;;;5.90;83.80
71774;BME280;59607;52.130;5.430;2023-05-18T03:33:56;103008.00;;;5.93;83.84
71774;BME280;59607;52.130;5.430;2023-05-18T03:36:25;103006.53;;;5.88;83.88
71774;BME280;59607;52.130;5.430;2023-05-18T03:38:57;103003.78;;;5.91;83.77
71774;BME280;59607;52.130;5.430;2023-05-18T03:41:28;103011.81;;;5.86;84.03
71774;BME280;59607;52.130;5.430;2023-05-18T03:44:01;103007.31;;;5.90;84.25
71774;BME280;59607;52.130;5.430;2023-05-18T03:46:35;103014.03;;;5.94;83.98
71774;BME280;59607;52.130;5.430;2023-05-18T03:49:15;103007.16;;;5.93;83.82
71774;BME280;59607;52.130;5.430;2023-05-18T03:51:56;103008.75;;;5.96;83.54
71774;BME280;59607;52.130;5.430;2023-05-18T03:54:25;103014.81;;;5.96;83.88
71774;BME280;59607;52.130;5.430;2023-05-18T03:56:54;103014.56;;;6.01;83.77
71774;BME280;59607;52.130;5.430;2023-05-18T03:59:21;103014.50;;;6.02;83.88
71774;BME280;59607;52.130;5.430;2023-05-18T04:01:50;103008.44;;;6.02;83.85
71774;BME280;59607;52.130;5.430;2023-05-18T04:04:22;103013.63;;;6.02;83.83
71774;BME280;59607;52.130;5.430;2023-05-18T04:06:53;103015.91;;;6.10;83.58
71774;BME280;59607;52.130;5.430;2023-05-18T04:09:19;103015.91;;;6.10;83.31
71774;BME280;59607;52.130;5.430;2023-05-18T04:11:50;103018.28;;;6.14;83.32
71774;BME280;59607;52.130;5.430;2023-05-18T04:14:16;103021.41;;;6.21;83.09
71774;BME280;59607;52.130;5.430;2023-05-18T04:16:46;103023.88;;;6.24;82.83
71774;BME280;59607;52.130;5.430;2023-05-18T04:19:13;103019.84;;;6.35;82.59
71774;BME280;59607;52.130;5.430;2023-05-18T04:21:59;103024.69;;;6.75;80.90
71774;BME280;59607;52.130;5.430;2023-05-18T04:24:34;103028.22;;;7.22;78.84
71774;BME280;59607;52.130;5.430;2023-05-18T04:27:01;103029.03;;;7.55;76.33
71774;BME280;59607;52.130;5.430;2023-05-18T04:29:30;103025.75;;;7.51;75.55
71774;BME280;59607;52.130;5.430;2023-05-18T04:31:57;103025.56;;;7.55;74.59
71774;BME280;59607;52.130;5.430;2023-05-18T04:34:34;103033.41;;;7.55;74.70
71774;BME280;59607;52.130;5.430;2023-05-18T04:37:04;103032.47;;;7.86;74.07
71774;BME280;59607;52.130;5.430;2023-05-18T04:39:39;103029.63;;;8.79;71.86
71774;BME280;59607;52.130;5.430;2023-05-18T04:42:10;103019.50;;;9.83;67.41
71774;BME280;59607;52.130;5.430;2023-05-18T04:44:39;103021.41;;;10.07;64.93
71774;BME280;59607;52.130;5.430;2023-05-18T04:47:06;103025.13;;;9.63;65.21
71774;BME280;59607;52.130;5.430;2023-05-18T04:49:39;103031.53;;;9.04;66.23
71774;BME280;59607;52.130;5.430;2023-05-18T04:52:07;103032.78;;;8.98;67.10
71774;BME280;59607;52.130;5.430;2023-05-18T04:54:39;103042.53;;;8.82;67.04
71774;BME280;59607;52.130;5.430;2023-05-18T04:57:06;103037.16;;;8.98;67.04
71774;BME280;59607;52.130;5.430;2023-05-18T04:59:33;103046.34;;;8.76;67.64
71774;BME280;59607;52.130;5.430;2023-05-18T05:02:13;103043.63;;;8.77;67.32
71774;BME280;59607;52.130;5.430;2023-05-18T05:04:43;103055.16;;;8.60;67.77
71774;BME280;59607;52.130;5.430;2023-05-18T05:07:12;103050.59;;;8.64;68.16
71774;BME280;59607;52.130;5.430;2023-05-18T05:09:39;103050.56;;;9.21;67.61
71774;BME280;59607;52.130;5.430;2023-05-18T05:12:24;103045.41;;;10.40;65.54
71774;BME280;59607;52.130;5.430;2023-05-18T05:14:57;103045.56;;;11.73;60.59
71774;BME280;59607;52.130;5.430;2023-05-18T05:17:23;103040.28;;;12.55;57.75
71774;BME280;59607;52.130;5.430;2023-05-18T05:19:50;103036.53;;;13.47;54.84
71774;BME280;59607;52.130;5.430;2023-05-18T05:22:23;103039.59;;;13.85;53.21
71774;BME280;59607;52.130;5.430;2023-05-18T05:24:50;103034.91;;;13.67;52.27
71774;BME280;59607;52.130;5.430;2023-05-18T05:27:17;103030.56;;;13.87;51.76
71774;BME280;59607;52.130;5.430;2023-05-18T05:29:47;103026.22;;;13.22;53.26
71774;BME280;59607;52.130;5.430;2023-05-18T05:32:18;103025.03;;;13.90;51.76
71774;BME280;59607;52.130;5.430;2023-05-18T05:34:50;103030.78;;;14.27;51.38
71774;BME280;59607;52.130;5.430;2023-05-18T05:37:17;103036.19;;;13.40;52.13
71774;BME280;59607;52.130;5.430;2023-05-18T05:39:58;103045.78;;;12.29;54.55
71774;BME280;59607;52.130;5.430;2023-05-18T05:42:29;103044.25;;;11.91;56.29
71774;BME280;59607;52.130;5.430;2023-05-18T05:44:59;103040.91;;;11.77;56.52
71774;BME280;59607;52.130;5.430;2023-05-18T05:47:26;103033.56;;;11.58;57.21
71774;BME280;59607;52.130;5.430;2023-05-18T05:49:53;103042.69;;;11.41;58.04
71774;BME280;59607;52.130;5.430;2023-05-18T05:52:23;103039.53;;;11.00;58.55
71774;BME280;59607;52.130;5.430;2023-05-18T05:54:50;103044.28;;;10.94;59.36
71774;BME280;59607;52.130;5.430;2023-05-18T05:57:16;103037.03;;;10.98;59.70
71774;BME280;59607;52.130;5.430;2023-05-18T05:59:50;103043.72;;;11.27;59.06
71774;BME280;59607;52.130;5.430;2023-05-18T06:02:19;103042.22;;;11.11;59.31
71774;BME280;59607;52.130;5.430;2023-05-18T06:04:53;103041.75;;;10.93;59.88
71774;BME280;59607;52.130;5.430;2023-05-18T06:07:22;103038.00;;;11.08;59.71
71774;BME280;59607;52.130;5.430;2023-05-18T06:09:51;103036.50;;;10.93;58.97
71774;BME280;59607;52.130;5.430;2023-05-18T06:12:21;103038.53;;;10.76;59.00
71774;BME280;59607;52.130;5.430;2023-05-18T06:14:54;103047.28;;;10.64;59.62
71774;BME280;59607;52.130;5.430;2023-05-18T06:17:34;103044.03;;;10.97;59.10
71774;BME280;59607;52.130;5.430;2023-05-18T06:20:00;103041.25;;;11.37;57.50
71774;BME280;59607;52.130;5.430;2023-05-18T06:22:37;103051.31;;;11.18;57.05
71774;BME280;59607;52.130;5.430;2023-05-18T06:25:06;103047.78;;;11.31;58.02
71774;BME280;59607;52.130;5.430;2023-05-18T06:27:40;103059.44;;;11.76;56.26
71774;BME280;59607;52.130;5.430;2023-05-18T06:30:09;103050.53;;;11.65;56.40
71774;BME280;59607;52.130;5.430;2023-05-18T06:32:42;103062.91;;;11.40;56.49
71774;BME280;59607;52.130;5.430;2023-05-18T06:35:09;103056.97;;;11.25;57.27
71774;BME280;59607;52.130;5.430;2023-05-18T06:37:44;103056.50;;;11.07;56.89
71774;BME280;59607;52.130;5.430;2023-05-18T06:40:12;103053.88;;;11.07;56.56
71774;BME280;59607;52.130;5.430;2023-05-18T06:42:39;103055.59;;;10.95;56.79
71774;BME280;59607;52.130;5.430;2023-05-18T06:45:08;103056.28;;;11.10;57.22
71774;BME280;59607;52.130;5.430;2023-05-18T06:47:36;103057.47;;;11.30;56.18
71774;BME280;59607;52.130;5.430;2023-05-18T06:50:13;103054.66;;;11.45;56.32
71774;BME280;59607;52.130;5.430;2023-05-18T06:52:43;103061.75;;;11.56;56.25
71774;BME280;59607;52.130;5.430;2023-05-18T06:55:15;103062.13;;;11.63;55.67
71774;BME280;59607;52.130;5.430;2023-05-18T06:57:42;103067.97;;;11.66;55.70
71774;BME280;59607;52.130;5.430;2023-05-18T07:00:17;103071.41;;;11.91;55.73
71774;BME280;59607;52.130;5.430;2023-05-18T07:02:44;103069.97;;;11.87;54.95
71774;BME280;59607;52.130;5.430;2023-05-18T07:05:14;103064.56;;;11.77;54.21
71774;BME280;59607;52.130;5.430;2023-05-18T07:07:50;103067.13;;;11.90;53.82
71774;BME280;59607;52.130;5.430;2023-05-18T07:10:23;103070.22;;;11.95;53.80
71774;BME280;59607;52.130;5.430;2023-05-18T07:12:49;103071.84;;;12.09;52.98
71774;BME280;59607;52.130;5.430;2023-05-18T07:15:16;103076.56;;;11.93;53.04
71774;BME280;59607;52.130;5.430;2023-05-18T07:17:51;103081.13;;;11.66;53.22
71774;BME280;59607;52.130;5.430;2023-05-18T07:20:24;103072.66;;;11.63;53.61
71774;BME280;59607;52.130;5.430;2023-05-18T07:22:58;103070.59;;;11.66;54.26
71774;BME280;59607;52.130;5.430;2023-05-18T07:25:26;103076.31;;;11.96;53.61
71774;BME280;59607;52.130;5.430;2023-05-18T07:27:53;103078.34;;;12.04;52.71
71774;BME280;59607;52.130;5.430;2023-05-18T07:30:21;103073.88;;;11.81;52.70
71774;BME280;59607;52.130;5.430;2023-05-18T07:32:51;103078.84;;;11.97;53.43
71774;BME280;59607;52.130;5.430;2023-05-18T07:35:21;103077.78;;;12.00;52.81
71774;BME280;59607;52.130;5.430;2023-05-18T07:37:48;103078.34;;;11.92;53.50
71774;BME280;59607;52.130;5.430;2023-05-18T07:40:21;103085.50;;;11.79;53.38
71774;BME280;59607;52.130;5.430;2023-05-18T07:42:47;103075.00;;;11.90;53.36
71774;BME280;59607;52.130;5.430;2023-05-18T07:45:23;103083.78;;;12.14;53.59
71774;BME280;59607;52.130;5.430;2023-05-18T07:47:49;103083.50;;;12.05;53.13
71774;BME280;59607;52.130;5.430;2023-05-18T07:50:16;103078.56;;;11.89;53.50
71774;BME280;59607;52.130;5.430;2023-05-18T07:53:02;103081.94;;;11.91;53.05
71774;BME280;59607;52.130;5.430;2023-05-18T07:55:36;103088.69;;;12.18;53.25
71774;BME280;59607;52.130;5.430;2023-05-18T07:58:04;103092.09;;;12.43;52.71
71774;BME280;59607;52.130;5.430;2023-05-18T08:00:30;103091.72;;;12.37;52.63
71774;BME280;59607;52.130;5.430;2023-05-18T08:02:57;103098.88;;;12.46;52.75
71774;BME280;59607;52.130;5.430;2023-05-18T08:05:29;103097.09;;;12.58;51.88
71774;BME280;59607;52.130;5.430;2023-05-18T08:08:00;103087.91;;;12.29;52.08
71774;BME280;59607;52.130;5.430;2023-05-18T08:10:31;103094.94;;;12.29;52.85
71774;BME280;59607;52.130;5.430;2023-05-18T08:12:58;103098.75;;;12.25;52.63
71774;BME280;59607;52.130;5.430;2023-05-18T08:15:24;103093.69;;;12.10;52.36
71774;BME280;59607;52.130;5.430;2023-05-18T08:17:54;103097.94;;;12.24;52.66
71774;BME280;59607;52.130;5.430;2023-05-18T08:20:22;103086.94;;;12.42;51.89
71774;BME280;59607;52.130;5.430;2023-05-18T08:22:50;103087.75;;;12.54;51.91
71774;BME280;59607;52.130;5.430;2023-05-18T08:25:17;103094.72;;;12.66;51.53
71774;BME280;59607;52.130;5.430;2023-05-18T08:27:46;103100.59;;;12.70;51.59
71774;BME280;59607;52.130;5.430;2023-05-18T08:30:13;103093.25;;;12.62;51.05
71774;BME280;59607;52.130;5.430;2023-05-18T08:32:40;103085.78;;;13.13;50.60
71774;BME280;59607;52.130;5.430;2023-05-18T08:35:26;103085.78;;;13.13;50.11
71774;BME280;59607;52.130;5.430;2023-05-18T08:37:53;103086.44;;;13.27;50.34
71774;BME280;59607;52.130;5.430;2023-05-18T08:40:20;103084.81;;;13.47;49.53
71774;BME280;59607;52.130;5.430;2023-05-18T08:45:40;103076.19;;;13.56;49.71
71774;BME280;59607;52.130;5.430;2023-05-18T08:48:10;103084.28;;;13.32;49.89
71774;BME280;59607;52.130;5.430;2023-05-18T08:50:45;103083.81;;;13.27;49.73
71774;BME280;59607;52.130;5.430;2023-05-18T08:53:15;103071.09;;;13.65;48.99
71774;BME280;59607;52.130;5.430;2023-05-18T08:55:49;103071.25;;;13.63;48.25
71774;BME280;59607;52.130;5.430;2023-05-18T08:58:21;103066.81;;;14.16;48.80
71774;BME280;59607;52.130;5.430;2023-05-18T09:00:52;103068.16;;;14.32;47.98
71774;BME280;59607;52.130;5.430;2023-05-18T09:03:28;103066.00;;;14.16;48.20
71774;BME280;59607;52.130;5.430;2023-05-18T09:05:55;103056.53;;;14.13;48.18
71774;BME280;59607;52.130;5.430;2023-05-18T09:08:25;103064.19;;;14.16;47.43
71774;BME280;59607;52.130;5.430;2023-05-18T09:10:55;103060.97;;;14.13;48.14
71774;BME280;59607;52.130;5.430;2023-05-18T09:13:22;103053.09;;;13.91;47.46
71774;BME280;59607;52.130;5.430;2023-05-18T09:15:57;103056.75;;;13.79;48.18
71774;BME280;59607;52.130;5.430;2023-05-18T09:18:25;103054.81;;;13.60;47.71
71774;BME280;59607;52.130;5.430;2023-05-18T09:21:07;103045.97;;;13.61;48.65
71774;BME280;59607;52.130;5.430;2023-05-18T09:23:34;103051.19;;;13.39;48.84
71774;BME280;59607;52.130;5.430;2023-05-18T09:26:04;103053.97;;;13.38;48.57
71774;BME280;59607;52.130;5.430;2023-05-18T09:28:42;103046.72;;;13.51;49.10
71774;BME280;59607;52.130;5.430;2023-05-18T09:31:15;103038.47;;;13.87;48.48
71774;BME280;59607;52.130;5.430;2023-05-18T09:33:45;103033.41;;;14.27;48.03
71774;BME280;59607;52.130;5.430;2023-05-18T09:36:13;103036.69;;;13.88;48.13
71774;BME280;59607;52.130;5.430;2023-05-18T09:38:59;103037.00;;;13.94;48.26
71774;BME280;59607;52.130;5.430;2023-05-18T09:41:30;103031.84;;;14.14;47.71
71774;BME280;59607;52.130;5.430;2023-05-18T09:43:56;103029.03;;;14.57;46.87
71774;BME280;59607;52.130;5.430;2023-05-18T09:46:34;103020.47;;;14.24;48.26
71774;BME280;59607;52.130;5.430;2023-05-18T09:49:02;103044.16;;;13.82;48.68
71774;BME280;59607;52.130;5.430;2023-05-18T09:51:47;103033.41;;;13.74;48.09
71774;BME280;59607;52.130;5.430;2023-05-18T09:54:18;103035.16;;;13.85;48.65
71774;BME280;59607;52.130;5.430;2023-05-18T09:56:44;103031.47;;;13.98;48.05
71774;BME280;59607;52.130;5.430;2023-05-18T09:59:35;103032.53;;;13.64;48.63
71774;BME280;59607;52.130;5.430;2023-05-18T10:02:04;103027.50;;;14.13;47.26
71774;BME280;59607;52.130;5.430;2023-05-18T10:04:40;103031.69;;;14.57;47.07
71774;BME280;59607;52.130;5.430;2023-05-18T10:07:11;103015.59;;;14.70;46.87
71774;BME280;59607;52.130;5.430;2023-05-18T10:09:45;103019.91;;;14.61;45.96
71774;BME280;59607;52.130;5.430;2023-05-18T10:12:13;103024.69;;;14.36;45.85
71774;BME280;59607;52.130;5.430;2023-05-18T10:14:44;103002.94;;;14.64;46.76
71774;BME280;59607;52.130;5.430;2023-05-18T10:17:14;103007.03;;;14.98;46.18
71774;BME280;59607;52.130;5.430;2023-05-18T10:19:46;103008.75;;;14.48;46.58
71774;BME280;59607;52.130;5.430;2023-05-18T10:22:15;103001.78;;;14.47;46.92
71774;BME280;59607;52.130;5.430;2023-05-18T10:24:45;103002.44;;;14.29;47.17
71774;BME280;59607;52.130;5.430;2023-05-18T10:27:16;103014.63;;;14.20;47.86
71774;BME280;59607;52.130;5.430;2023-05-18T10:29:45;103006.25;;;14.15;46.51
71774;BME280;59607;52.130;5.430;2023-05-18T10:32:19;102997.25;;;14.17;46.92
71774;BME280;59607;52.130;5.430;2023-05-18T10:34:46;102995.25;;;14.51;47.07
71774;BME280;59607;52.130;5.430;2023-05-18T10:37:22;102992.81;;;14.79;45.98
71774;BME280;59607;52.130;5.430;2023-05-18T10:39:53;102992.44;;;14.84;46.46
71774;BME280;59607;52.130;5.430;2023-05-18T10:42:33;102995.72;;;14.76;46.32
71774;BME280;59607;52.130;5.430;2023-05-18T10:45:08;103002.94;;;14.64;45.95
71774;BME280;59607;52.130;5.430;2023-05-18T10:47:35;102995.09;;;14.42;46.27
71774;BME280;59607;52.130;5.430;2023-05-18T10:50:08;102995.44;;;14.59;47.01
71774;BME280;59607;52.130;5.430;2023-05-18T10:52:43;102986.72;;;14.88;46.06
71774;BME280;59607;52.130;5.430;2023-05-18T10:55:11;102987.84;;;15.05;45.99
71774;BME280;59607;52.130;5.430;2023-05-18T10:57:59;102990.63;;;15.24;46.47
71774;BME280;59607;52.130;5.430;2023-05-18T11:01:00;102988.13;;;15.12;44.51
71774;BME280;59607;52.130;5.430;2023-05-18T11:03:50;102990.75;;;15.02;45.14
71774;BME280;59607;52.130;5.430;2023-05-18T11:06:22;102986.31;;;14.83;44.28
71774;BME280;59607;52.130;5.430;2023-05-18T11:09:20;102993.69;;;15.09;45.55
71774;BME280;59607;52.130;5.430;2023-05-18T11:11:57;102979.03;;;15.35;44.22
71774;BME280;59607;52.130;5.430;2023-05-18T11:14:50;102978.66;;;15.20;44.06
71774;BME280;59607;52.130;5.430;2023-05-18T11:17:24;102977.25;;;15.15;45.50
71774;BME280;59607;52.130;5.430;2023-05-18T11:23:01;102977.50;;;15.42;43.98
71774;BME280;59607;52.130;5.430;2023-05-18T11:28:02;102967.47;;;15.94;44.24
71774;BME280;59607;52.130;5.430;2023-05-18T11:33:21;102966.19;;;15.60;44.06
71774;BME280;59607;52.130;5.430;2023-05-18T11:36:11;102964.66;;;15.57;44.47
71774;BME280;59607;52.130;5.430;2023-05-18T11:41:39;102949.63;;;16.06;43.43
71774;BME280;59607;52.130;5.430;2023-05-18T11:44:19;102952.28;;;15.96;42.61
71774;BME280;59607;52.130;5.430;2023-05-18T11:49:24;102947.03;;;16.14;42.38
71774;BME280;59607;52.130;5.430;2023-05-18T11:52:37;102950.38;;;16.16;42.70
71774;BME280;59607;52.130;5.430;2023-05-18T11:54:59;102941.91;;;16.12;42.85
71774;BME280;59607;52.130;5.430;2023-05-18T12:00:08;102941.69;;;16.70;42.37
71774;BME280;59607;52.130;5.430;2023-05-18T12:02:43;102943.38;;;16.25;42.23
71774;BME280;59607;52.130;5.430;2023-05-18T12:05:16;102935.19;;;16.18;43.01
71774;BME280;59607;52.130;5.430;2023-05-18T12:07:42;102933.47;;;16.45;42.85
71774;BME280;59607;52.130;5.430;2023-05-18T12:10:15;102927.66;;;16.96;42.88
71774;BME280;59607;52.130;5.430;2023-05-18T12:12:51;102921.66;;;16.76;43.85
71774;BME280;59607;52.130;5.430;2023-05-18T12:15:21;102911.91;;;16.58;44.20
71774;BME280;59607;52.130;5.430;2023-05-18T12:17:49;102919.09;;;16.30;43.74
71774;BME280;59607;52.130;5.430;2023-05-18T12:20:21;102915.09;;;16.62;44.43
71774;BME280;59607;52.130;5.430;2023-05-18T12:22:51;102906.94;;;17.00;43.13
71774;BME280;59607;52.130;5.430;2023-05-18T12:25:25;102908.13;;;16.79;43.05
71774;BME280;59607;52.130;5.430;2023-05-18T12:27:53;102905.66;;;16.59;43.88
71774;BME280;59607;52.130;5.430;2023-05-18T12:30:27;102907.38;;;16.69;43.94
71774;BME280;59607;52.130;5.430;2023-05-18T12:33:02;102902.53;;;16.64;44.02
71774;BME280;59607;52.130;5.430;2023-05-18T12:35:48;102902.63;;;16.99;43.30
71774;BME280;59607;52.130;5.430;2023-05-18T12:38:16;102907.16;;;17.25;41.96
71774;BME280;59607;52.130;5.430;2023-05-18T12:40:51;102904.09;;;16.93;42.92
71774;BME280;59607;52.130;5.430;2023-05-18T12:43:19;102898.19;;;16.81;43.13
71774;BME280;59607;52.130;5.430;2023-05-18T12:45:50;102900.44;;;16.94;42.23
71774;BME280;59607;52.130;5.430;2023-05-18T12:48:20;102891.34;;;17.42;41.67
71774;BME280;59607;52.130;5.430;2023-05-18T12:50:52;102882.59;;;17.49;42.45
71774;BME280;59607;52.130;5.430;2023-05-18T12:53:18;102875.84;;;17.63;42.53
71774;BME280;59607;52.130;5.430;2023-05-18T12:55:55;102887.19;;;17.47;41.56
71774;BME280;59607;52.130;5.430;2023-05-18T12:58:29;102898.84;;;17.01;41.44
71774;BME280;59607;52.130;5.430;2023-05-18T13:01:07;102890.69;;;16.95;42.27
71774;BME280;59607;52.130;5.430;2023-05-18T13:03:40;102893.88;;;17.25;42.15
71774;BME280;59607;52.130;5.430;2023-05-18T13:06:09;102881.31;;;17.27;41.73
71774;BME280;59607;52.130;5.430;2023-05-18T13:08:36;102879.91;;;17.14;41.79
71774;BME280;59607;52.130;5.430;2023-05-18T13:11:06;102883.50;;;17.32;42.15
71774;BME280;59607;52.130;5.430;2023-05-18T13:13:59;102870.47;;;17.47;42.50
71774;BME280;59607;52.130;5.430;2023-05-18T13:16:26;102867.50;;;17.58;41.87
71774;BME280;59607;52.130;5.430;2023-05-18T13:19:01;102877.38;;;17.39;42.18
71774;BME280;59607;52.130;5.430;2023-05-18T13:21:30;102878.03;;;17.33;41.91
71774;BME280;59607;52.130;5.430;2023-05-18T13:24:00;102862.06;;;17.60;42.24
71774;BME280;59607;52.130;5.430;2023-05-18T13:26:33;102860.75;;;18.24;41.88
71774;BME280;59607;52.130;5.430;2023-05-18T13:29:07;102863.75;;;18.29;41.13
71774;BME280;59607;52.130;5.430;2023-05-18T13:31:36;102863.50;;;17.97;40.93
71774;BME280;59607;52.130;5.430;2023-05-18T13:34:09;102871.75;;;17.78;40.53
71774;BME280;59607;52.130;5.430;2023-05-18T13:36:51;102862.78;;;17.79;40.27
71774;BME280;59607;52.130;5.430;2023-05-18T13:39:20;102855.22;;;17.92;39.88
71774;BME280;59607;52.130;5.430;2023-05-18T13:41:49;102856.72;;;18.11;39.82
71774;BME280;59607;52.130;5.430;2023-05-18T13:44:16;102844.16;;;18.38;39.05
71774;BME280;59607;52.130;5.430;2023-05-18T13:47:05;102854.59;;;18.15;39.63